地図

経路データ

SID SEASON NUMBER BASIN SUBBASIN NAME ISO_TIME NATURE LAT LON WMO_WIND WMO_PRES WMO_AGENCY TRACK_TYPE DIST2LAND LANDFALL IFLAG USA_AGENCY USA_ATCF_ID USA_LAT USA_LON USA_RECORD USA_STATUS USA_WIND USA_PRES USA_SSHS USA_R34_NE USA_R34_SE USA_R34_SW USA_R34_NW USA_R50_NE USA_R50_SE USA_R50_SW USA_R50_NW USA_R64_NE USA_R64_SE USA_R64_SW USA_R64_NW USA_POCI USA_ROCI USA_RMW USA_EYE TOKYO_LAT TOKYO_LON TOKYO_GRADE TOKYO_WIND TOKYO_PRES TOKYO_R50_DIR TOKYO_R50_LONG TOKYO_R50_SHORT TOKYO_R30_DIR TOKYO_R30_LONG TOKYO_R30_SHORT TOKYO_LAND CMA_LAT CMA_LON CMA_CAT CMA_WIND CMA_PRES HKO_LAT HKO_LON HKO_CAT HKO_WIND HKO_PRES NEWDELHI_LAT NEWDELHI_LON NEWDELHI_GRADE NEWDELHI_WIND NEWDELHI_PRES NEWDELHI_CI NEWDELHI_DP NEWDELHI_POCI REUNION_LAT REUNION_LON REUNION_TYPE REUNION_WIND REUNION_PRES REUNION_TNUM REUNION_CI REUNION_RMW REUNION_R34_NE REUNION_R34_SE REUNION_R34_SW REUNION_R34_NW REUNION_R50_NE REUNION_R50_SE REUNION_R50_SW REUNION_R50_NW REUNION_R64_NE REUNION_R64_SE REUNION_R64_SW REUNION_R64_NW BOM_LAT BOM_LON BOM_TYPE BOM_WIND BOM_PRES BOM_TNUM BOM_CI BOM_RMW BOM_R34_NE BOM_R34_SE BOM_R34_SW BOM_R34_NW BOM_R50_NE BOM_R50_SE BOM_R50_SW BOM_R50_NW BOM_R64_NE BOM_R64_SE BOM_R64_SW BOM_R64_NW BOM_ROCI BOM_POCI BOM_EYE BOM_POS_METHOD BOM_PRES_METHOD NADI_LAT NADI_LON NADI_CAT NADI_WIND NADI_PRES WELLINGTON_LAT WELLINGTON_LON WELLINGTON_WIND WELLINGTON_PRES DS824_LAT DS824_LON DS824_STAGE DS824_WIND DS824_PRES TD9636_LAT TD9636_LON TD9636_STAGE TD9636_WIND TD9636_PRES TD9635_LAT TD9635_LON TD9635_WIND TD9635_PRES TD9635_ROCI NEUMANN_LAT NEUMANN_LON NEUMANN_CLASS NEUMANN_WIND NEUMANN_PRES MLC_LAT MLC_LON MLC_CLASS MLC_WIND MLC_PRES USA_GUST BOM_GUST BOM_GUST_PER REUNION_GUST REUNION_GUST_PER USA_SEAHGT USA_SEARAD_NE USA_SEARAD_SE USA_SEARAD_SW USA_SEARAD_NW STORM_SPEED STORM_DIR
1970104S15184 1970 40 SP MM HELEN 1970-04-13 12:00:00 TS -14.8000 -176.000 main 374 369 O________OO___ jtwc_sh SH301970 -14.8000 -176.000 -1 -14.8000 184.000 TC -14.8000 -176.000 2 11 154
1970104S15184 1970 40 SP MM HELEN 1970-04-13 15:00:00 TS -15.3079 -175.744 main 371 371 P________PP___ SH301970 -15.3226 -175.753 -1 -15.3226 -175.753 TC -15.2785 -175.728 2 11 152
1970104S15184 1970 40 SP MM HELEN 1970-04-13 18:00:00 TS -15.8106 -175.449 40 990 wellington main 375 375 O_______OOP___ jtwc_sh SH301970 -15.8000 -175.500 -1 -16.1000 -175.100 40 990 -15.8000 184.500 TC -15.7355 -175.464 2 10 149
1970104S15184 1970 40 SP MM HELEN 1970-04-13 21:00:00 TS -16.1979 -175.183 main 387 387 P_______PPP___ SH301970 -16.1950 -175.242 -1 -16.3060 -174.874 40 990 -16.1950 -175.242 TC -16.1497 -175.218 2 9 143
1970104S15184 1970 40 SP MM HELEN 1970-04-14 00:00:00 TS -16.4999 -174.905 main 390 386 O_______POO_O_ jtwc_sh SH301970 -16.5000 -175.000 -1 -16.4996 -174.628 40 990 -16.5000 185.000 TC 35 -16.5000 -175.000 2 -16.5000 -174.600 TC 30 7 135
1970104S15184 1970 40 SP MM HELEN 1970-04-14 03:00:00 TS -16.7190 -174.641 main 389 387 P_______PPP_P_ SH301970 -16.7300 -174.785 -1 -16.6684 -174.343 40 990 -16.7300 -174.785 TC 35 -16.7710 -174.815 2 -16.6726 -174.310 TC 30 6 127
1970104S15184 1970 40 SP MM HELEN 1970-04-14 06:00:00 TS -16.8778 -174.389 40 990 wellington main 397 391 O_______OOP_O_ jtwc_sh SH301970 -16.9000 -174.600 -1 -16.8000 -174.000 40 990 -16.9000 185.400 TC 35 -16.9696 -174.649 2 -16.8000 -174.000 TC 30 6 120
1970104S15184 1970 40 SP MM HELEN 1970-04-14 09:00:00 TS -17.0028 -174.130 main 392 388 P_______PPP_P_ SH301970 -17.0799 -174.457 -1 -16.8880 -173.594 40 990 -17.0799 -174.457 TC 35 -17.1085 -174.484 2 -16.8575 -173.657 TC 32 5 113
1970104S15184 1970 40 SP MM HELEN 1970-04-14 12:00:00 TS -17.0901 -173.876 main 394 384 O_______POO_O_ jtwc_sh SH301970 -17.2000 -174.300 -1 -16.9507 -173.180 40 990 -17.2000 185.700 TC 35 -17.2000 -174.300 2 -16.9000 -173.300 TC 35 5 103
1970104S15184 1970 40 SP MM HELEN 1970-04-14 15:00:00 TS -17.1297 -173.572 main 384 379 P_______PPP_P_ SH301970 -17.2150 -174.065 -1 -17.0130 -172.826 40 990 -17.2150 -174.065 TC 35 -17.2278 -174.014 2 -16.9776 -172.890 TC 32 6 98
1970104S15184 1970 40 SP MM HELEN 1970-04-14 18:00:00 TS -17.1641 -173.303 40 990 wellington main 387 384 O_______OOP_O_ jtwc_sh SH301970 -17.2000 -173.800 -1 -17.1000 -172.600 40 990 -17.2000 186.200 TC 35 -17.2204 -173.717 2 -17.1000 -172.600 TC 30 4 105
1970104S15184 1970 40 SP MM HELEN 1970-04-14 21:00:00 TS -17.2423 -173.124 main 384 384 P_______PPP_P_ SH301970 -17.2126 -173.513 -1 -17.2661 -172.564 37 991 -17.2126 -173.513 TC 35 -17.2278 -173.462 2 -17.2924 -172.567 TC 27 3 131
1970104S15184 1970 40 SP MM HELEN 1970-04-15 00:00:00 TS -17.3714 -173.052 main 406 405 O_______POO_O_ jtwc_sh SH301970 -17.3000 -173.300 -1 -17.4570 -172.662 35 993 -17.3000 186.700 TC 35 -17.3000 -173.300 2 -17.5000 -172.700 TC 25 3 172
1970104S15184 1970 40 SP MM HELEN 1970-04-15 03:00:00 TS -17.5746 -173.090 main 428 428 P_______PPP_P_ SH301970 -17.5124 -173.233 -1 -17.6444 -172.854 32 995 -17.5124 -173.233 TC 35 -17.5312 -173.263 2 -17.6725 -172.870 TC 22 5 200
1970104S15184 1970 40 SP MM HELEN 1970-04-15 06:00:00 TS -17.8054 -173.225 30 997 wellington main 452 452 O_______OOP_O_ jtwc_sh SH301970 -17.8000 -173.300 -1 -17.8000 -173.100 30 997 -17.8000 186.700 TC 35 -17.8270 -173.327 2 -17.8000 -173.100 TC 20 5 214
1970104S15184 1970 40 SP MM HELEN 1970-04-15 09:00:00 TS -18.0228 -173.411 main 477 477 P_______PPP_P_ SH301970 -18.1225 -173.455 -1 -17.8698 -173.332 30 997 -18.1225 -173.455 TC 35 -18.1343 -173.478 2 -17.8650 -173.335 TC 20 6 226
1970104S15184 1970 40 SP MM HELEN 1970-04-15 12:00:00 TS -18.2015 -173.661 main 506 506 O_______POO_O_ jtwc_sh SH301970 -18.4000 -173.700 -1 -17.9076 -173.605 30 997 -18.4000 186.300 TC 35 -18.4000 -173.700 2 -17.9000 -173.600 TC 20 6 242
1970104S15184 1970 40 SP MM HELEN 1970-04-15 15:00:00 TS -18.2950 -173.941 main 522 522 P_______PPP_P_ SH301970 -18.5300 -173.978 -1 -17.9416 -173.901 30 997 -18.5300 -173.978 TC 35 -18.5383 -173.957 2 -17.9350 -173.893 TC 17 6 254
1970104S15184 1970 40 SP MM HELEN 1970-04-15 18:00:00 TS -18.3660 -174.255 30 997 wellington main 545 545 O_______OOP_O_ jtwc_sh SH301970 -18.6000 -174.300 -1 -18.0000 -174.200 30 997 -18.6000 185.700 TC 35 -18.6302 -174.276 2 -18.0000 -174.200 TC 15 6 254
1970104S15184 1970 40 SP MM HELEN 1970-04-15 21:00:00 TS -18.4664 -174.584 main 567 567 P_______PPP_P_ SH301970 -18.6925 -174.643 -1 -18.1051 -174.495 30 997 -18.6925 -174.643 TC 35 -18.7070 -174.632 2 -18.1350 -174.507 TC 15 7 251
1970104S15184 1970 40 SP MM HELEN 1970-04-16 00:00:00 TS -18.5880 -174.917 main 586 560 O_______POO_O_ jtwc_sh SH301970 -18.8000 -175.000 -1 -18.2401 -174.787 30 997 -18.8000 185.000 TC 35 -18.8000 -175.000 2 -18.3000 -174.800 TC 15 7 247
1970104S15184 1970 40 SP MM HELEN 1970-04-16 03:00:00 TS -18.7311 -175.251 main 551 531 P_______PPP_P_ SH301970 -18.9349 -175.350 -1 -18.4051 -175.061 30 997 -18.9349 -175.350 TC 35 -18.9458 -175.427 2 -18.4350 -175.065 TC 15 7 243
1970104S15184 1970 40 SP MM HELEN 1970-04-16 06:00:00 TS -18.9026 -175.570 30 997 wellington main 531 513 O_______OOP_O_ jtwc_sh SH301970 -19.1000 -175.700 -1 -18.6000 -175.300 30 997 -19.1000 184.300 TC 35 -19.1132 -175.849 2 -18.6000 -175.300 TC 15 7 238
1970104S15184 1970 40 SP MM HELEN 1970-04-16 09:00:00 TS -19.1085 -175.883 main 513 507 P_______PPP_P_ SH301970 -19.2926 -176.102 -1 -18.8237 -175.494 30 997 -19.2926 -176.102 TC 35 -19.2988 -176.196 2 -18.8350 -175.522 TC 15 7 231
1970104S15184 1970 40 SP MM HELEN 1970-04-16 12:00:00 TS -19.3617 -176.158 main 504 502 O_______POO_O_ jtwc_sh SH301970 -19.5000 -176.400 -1 -19.0699 -175.650 30 997 -19.5000 183.600 TC 35 -19.5000 -176.400 2 -19.1000 -175.700 TC 15 6 218
1970104S15184 1970 40 SP MM HELEN 1970-04-16 15:00:00 TS -19.6104 -176.305 main 509 509 P_______PPP_P_ SH301970 -19.6923 -176.505 -1 -19.3312 -175.781 30 997 -19.6923 -176.505 TC 35 -19.7140 -176.412 2 -19.3550 -175.818 TC 15 5 192
1970104S15184 1970 40 SP MM HELEN 1970-04-16 18:00:00 TS -19.8557 -176.272 30 997 wellington main 530 530 O_______OOP_O_ jtwc_sh SH301970 -19.9000 -176.400 -1 -19.6000 -175.900 30 997 -19.9000 183.600 TC 35 -19.9377 -176.264 2 -19.6000 -175.900 TC 15 6 158
1970104S15184 1970 40 SP MM HELEN 1970-04-16 21:00:00 TS -20.1494 -176.072 main 560 560 P________PP___ SH301970 -20.1403 -176.103 -1 -20.1403 -176.103 TC 35 -20.1675 -176.009 2 TC 8 135
1970104S15184 1970 40 SP MM HELEN 1970-04-17 00:00:00 TS -20.4000 -175.700 main 614 O________OO___ jtwc_sh SH301970 -20.4000 -175.700 -1 -20.4000 184.300 TC 35 -20.4000 -175.700 2 9 126

デジタル台風データ・検索

IBTrACS Databaseについて

本データベースは、米国NOAAが公開する1842年以降の世界の熱帯低気圧のベストトラックデータアーカイブInternational Best Track Archive for Climate Stewardship (IBTrACS)を、ウェブで閲覧しやすい形式に変換したものです。

最終更新日:2021-11-26